Terminal Aerodrome Forecast
Issued by NWS

Home | Current Version | Previous Version | Text Only | Print | Product List | Glossary On
Versions: 1 2 3 4 5 6 7 8 9 10 11 12 13 14 15 16 17 18 19 20 21 22 23 24 25 26 27 28
000
FTUS43 KIND 201100
TAFHUF
TAF
KHUF 201120Z 2012/2112 00000KT 1/4SM FG VV001
      TEMPO 2012/2014 VRB04KT 3SM BR BCFG SCT002
     FM201400 27007KT P6SM SCT060
     FM210500 19002KT 4SM BR VCTS BKN040CB
      AMD LTD TO CLD VIS AND WIND TIL 201300=

USA.gov is the U.S. government's official web portal to all federal, state and local government web resources and services.